Time;durP1;ratioP1;P1;durP2;ratioP2;P2;SDS_P1;SDS_P2;PMS_P1;PMS_P2;Temp;Humidity;BMP_temperature;BMP_pressure;BME280_temperature;BME280_humidity;BME280_pressure;Samples;Min_cycle;Max_cycle;Signal;HPM_P1;HPM_P2
2022/10/30 06:03:24;;;;;;;4.63;1.83;;;;;;;14.17;53.19;95953.44;4853457;29;20224;-84
2022/10/30 06:05:59;;;;;;;4.63;2.00;;;;;;;14.12;53.08;95950.47;4855409;29;20581;-83
2022/10/30 06:08:29;;;;;;;5.18;1.73;;;;;;;14.09;53.38;95951.59;4836614;29;20236;-84
2022/10/30 06:11:32;;;;;;;3.77;1.93;;;;;;;14.12;52.92;95955.69;4841772;29;20732;-88
2022/10/30 06:14:01;;;;;;;8.13;2.03;;;;;;;14.10;52.98;95949.81;4847408;29;20557;-84
2022/10/30 06:16:30;;;;;;;7.23;1.87;;;;;;;14.10;53.50;95957.66;4844219;29;20220;-83
2022/10/30 06:19:28;;;;;;;4.93;1.90;;;;;;;14.07;53.58;95955.38;4845726;29;20206;-84
2022/10/30 06:22:08;;;;;;;6.38;1.80;;;;;;;14.09;53.31;95959.44;4858525;29;20205;-84
2022/10/30 06:24:48;;;;;;;6.53;2.13;;;;;;;14.13;53.13;95959.94;4826138;29;20665;-86
2022/10/30 06:27:18;;;;;;;3.60;1.50;;;;;;;14.17;52.62;95956.84;4823224;29;20202;-87
2022/10/30 06:29:44;;;;;;;6.72;1.77;;;;;;;14.23;52.56;95962.44;4831644;29;20304;-87
2022/10/30 06:32:12;;;;;;;3.23;1.43;;;;;;;14.25;52.87;95958.69;4832130;29;20277;-87
2022/10/30 06:34:38;;;;;;;8.27;1.90;;;;;;;14.34;51.44;95960.31;4842099;29;20185;-87
2022/10/30 06:37:09;;;;;;;4.03;1.37;;;;;;;14.41;51.72;95966.53;4839472;29;20193;-87
2022/10/30 06:39:37;;;;;;;4.70;1.90;;;;;;;14.42;51.71;95965.56;4851305;29;20213;-86
2022/10/30 06:42:05;;;;;;;6.67;1.67;;;;;;;14.51;52.23;95969.03;4832190;29;20185;-87
2022/10/30 06:44:33;;;;;;;4.10;1.57;;;;;;;14.54;51.77;95966.09;4825939;29;20189;-87
2022/10/30 06:46:59;;;;;;;4.40;1.50;;;;;;;14.64;51.46;95966.75;4826242;29;20241;-87
2022/10/30 06:49:27;;;;;;;5.78;1.60;;;;;;;14.69;51.65;95963.66;4833510;29;20696;-87
2022/10/30 06:51:53;;;;;;;8.57;2.17;;;;;;;14.79;51.46;95968.72;4833466;29;20667;-88
2022/10/30 06:54:33;;;;;;;4.83;2.43;;;;;;;14.87;51.50;95969.53;4827242;29;20199;-86
2022/10/30 06:57:01;;;;;;;4.93;2.42;;;;;;;14.99;49.79;95970.84;4850661;29;20192;-86
2022/10/30 06:59:26;;;;;;;7.82;3.55;;;;;;;15.09;49.97;95970.66;4822772;29;20193;-86
2022/10/30 07:01:55;;;;;;;6.07;2.70;;;;;;;15.21;49.12;95966.75;4825416;29;20673;-86
2022/10/30 07:04:20;;;;;;;5.22;2.28;;;;;;;15.33;49.01;95963.78;4826375;29;20189;-86
2022/10/30 07:06:46;;;;;;;5.05;1.60;;;;;;;15.46;48.11;95972.75;4825980;29;20669;-86
2022/10/30 07:09:14;;;;;;;6.23;1.80;;;;;;;15.61;47.96;95974.69;4824167;29;20205;-87
2022/10/30 07:11:44;;;;;;;9.27;2.13;;;;;;;15.74;47.91;95975.00;4826162;29;20201;-86
2022/10/30 07:14:10;;;;;;;6.43;1.77;;;;;;;15.82;47.85;95978.41;4832984;29;20227;-87
2022/10/30 07:16:36;;;;;;;4.18;1.48;;;;;;;15.95;47.22;95983.09;4826558;29;20193;-86
2022/10/30 07:19:01;;;;;;;7.00;1.50;;;;;;;16.12;46.55;95978.59;4835678;29;20193;-85
2022/10/30 07:21:27;;;;;;;4.60;1.45;;;;;;;16.29;45.29;95980.13;4826508;29;20313;-86
2022/10/30 07:23:52;;;;;;;3.58;1.60;;;;;;;16.40;45.25;95976.31;4826837;29;20189;-86
2022/10/30 07:26:20;;;;;;;3.20;1.80;;;;;;;16.59;44.40;95977.66;4825094;29;20212;-86
2022/10/30 07:28:45;;;;;;;2.17;1.23;;;;;;;16.71;45.07;95978.94;4835311;29;20264;-86
2022/10/30 07:31:10;;;;;;;5.18;1.42;;;;;;;16.90;43.91;95980.25;4841107;29;20621;-88
2022/10/30 07:33:47;;;;;;;2.25;1.25;;;;;;;17.02;44.61;95980.66;4825226;29;20200;-86
2022/10/30 07:37:07;;;;;;;4.70;1.60;;;;;;;17.05;44.66;95982.91;4826248;29;20200;-82
2022/10/30 07:50:40;;;;;;;2.45;1.25;;;;;;;17.78;43.33;95988.31;4764771;30;20309;-83
2022/10/30 08:02:49;;;;;;;4.85;1.38;;;;;;;18.35;42.43;95997.28;5056662;28;20669;-82
2022/10/30 08:05:15;;;;;;;5.07;1.55;;;;;;;18.35;42.64;95995.47;5096626;28;20208;-82
2022/10/30 08:07:40;;;;;;;3.75;1.30;;;;;;;18.53;42.35;95999.53;5043029;28;20185;-82
2022/10/30 08:10:06;;;;;;;2.22;1.15;;;;;;;18.65;41.98;96001.53;5056883;28;20224;-83
2022/10/30 08:12:33;;;;;;;2.72;1.38;;;;;;;18.78;41.49;95997.38;5050889;28;20268;-84
2022/10/30 08:14:58;;;;;;;2.60;1.20;;;;;;;18.91;40.56;95998.34;5050916;28;20199;-82
2022/10/30 08:17:23;;;;;;;4.40;1.50;;;;;;;19.02;41.54;95997.03;5049076;28;20558;-81
2022/10/30 08:55:47;;;;;;;2.75;1.33;;;;;;;20.15;41.54;96000.44;4957366;28;20287;-82
2022/10/30 08:58:12;;;;;;;4.80;1.20;;;;;;;20.25;39.16;95995.63;4923360;28;20181;-84
2022/10/30 09:00:38;;;;;;;3.35;1.00;;;;;;;20.42;37.63;96004.81;4913189;28;20411;-83
2022/10/30 09:03:03;;;;;;;6.10;1.05;;;;;;;20.58;35.65;96004.50;4938431;28;20197;-84
2022/10/30 09:05:28;;;;;;;3.70;1.17;;;;;;;20.78;34.46;96003.72;4926966;28;20193;-85
2022/10/30 09:07:59;;;;;;;4.35;1.30;;;;;;;20.88;36.40;96007.59;4925857;28;20697;-86
2022/10/30 09:10:26;;;;;;;2.38;1.00;;;;;;;20.98;35.03;96001.94;4959852;28;20312;-84
2022/10/30 09:12:58;;;;;;;4.35;1.50;;;;;;;21.09;35.74;95992.59;4945210;29;20204;-84
2022/10/30 09:15:23;;;;;;;2.13;1.08;;;;;;;21.25;33.17;95996.66;4911003;29;20197;-84
2022/10/30 09:17:57;;;;;;;2.40;1.15;;;;;;;21.42;32.91;95990.81;4920684;29;20205;-82
2022/10/30 09:20:23;;;;;;;4.55;1.42;;;;;;;21.62;33.34;96000.53;4942746;29;20217;-83
2022/10/30 09:22:49;;;;;;;1.33;0.82;;;;;;;21.52;33.76;95998.31;4928610;29;20204;-83
2022/10/30 09:25:14;;;;;;;4.28;1.40;;;;;;;21.47;34.26;95998.94;4931113;29;20295;-83
2022/10/30 09:27:39;;;;;;;2.58;1.30;;;;;;;21.56;33.12;95994.25;4933774;29;20284;-83
2022/10/30 09:30:06;;;;;;;4.13;1.60;;;;;;;21.65;33.90;96000.94;4907359;29;20266;-84
2022/10/30 09:32:31;;;;;;;3.78;1.55;;;;;;;21.61;33.90;95994.44;4931219;29;20254;-83
2022/10/30 09:34:56;;;;;;;3.88;1.42;;;;;;;21.64;33.50;95996.66;4951911;29;20180;-83
2022/10/30 09:37:26;;;;;;;2.35;1.20;;;;;;;21.67;34.32;96003.38;4947626;29;20178;-83
2022/10/30 09:39:51;;;;;;;3.70;1.38;;;;;;;21.73;32.39;96003.38;4943221;29;20217;-84
2022/10/30 09:42:39;;;;;;;3.92;1.27;;;;;;;21.88;30.36;96002.31;4949058;28;20208;-84
2022/10/30 09:45:28;;;;;;;5.50;1.40;;;;;;;21.97;31.08;96006.38;4935198;29;20190;-83
2022/10/30 09:48:32;;;;;;;3.50;1.25;;;;;;;21.97;31.10;96011.66;4948978;28;20216;-85
2022/10/30 09:51:04;;;;;;;1.33;1.10;;;;;;;22.04;29.98;96001.88;4955005;28;20288;-84
2022/10/30 09:53:39;;;;;;;3.55;1.25;;;;;;;22.12;30.59;96006.97;4951357;29;20185;-85
2022/10/30 09:56:12;;;;;;;2.65;1.13;;;;;;;22.24;29.90;96009.78;4955923;28;20223;-83
2022/10/30 09:59:16;;;;;;;2.80;1.10;;;;;;;22.32;28.69;96014.84;4953964;28;20224;-85
2022/10/30 10:01:48;;;;;;;3.00;0.95;;;;;;;22.40;29.24;96011.94;4957299;28;20210;-83
2022/10/30 10:04:24;;;;;;;3.95;1.30;;;;;;;22.51;29.81;96007.81;4961209;29;20184;-82
2022/10/30 10:06:54;;;;;;;2.72;1.20;;;;;;;22.54;28.98;96005.59;4947984;28;20186;-83
2022/10/30 10:09:22;;;;;;;2.25;1.15;;;;;;;22.54;30.09;96010.06;4958433;28;20175;-83
2022/10/30 10:11:58;;;;;;;2.05;1.38;;;;;;;22.59;29.91;96013.69;4967601;28;20201;-81
2022/10/30 10:14:36;;;;;;;1.83;1.42;;;;;;;22.52;28.99;96018.19;4964494;28;20178;-81
2022/10/30 10:17:03;;;;;;;2.13;1.13;;;;;;;22.61;28.11;96019.56;4937857;29;20200;-82
2022/10/30 10:19:35;;;;;;;3.03;1.30;;;;;;;22.68;27.60;96014.25;4946986;28;20685;-82
2022/10/30 10:22:02;;;;;;;2.95;1.05;;;;;;;22.74;27.18;96016.06;4926849;29;20673;-82
2022/10/30 10:24:34;;;;;;;2.60;1.13;;;;;;;22.78;27.65;96014.59;4946984;29;20398;-82
2022/10/30 10:27:17;;;;;;;2.67;1.15;;;;;;;22.72;28.47;96010.19;4937426;28;20247;-81
2022/10/30 10:30:01;;;;;;;1.90;1.13;;;;;;;22.75;27.06;96015.03;4951365;28;20303;-82
2022/10/30 10:32:56;;;;;;;2.78;1.10;;;;;;;22.82;26.73;96007.88;4952190;28;20665;-81
2022/10/30 10:35:44;;;;;;;1.92;0.93;;;;;;;22.94;27.49;96009.88;4953764;29;20186;-84
2022/10/30 10:38:15;;;;;;;3.35;1.10;;;;;;;22.90;27.93;96009.50;4968091;28;20173;-82
2022/10/30 10:40:55;;;;;;;4.32;1.35;;;;;;;22.97;30.49;96007.63;4954382;28;20205;-81
2022/10/30 10:43:24;;;;;;;3.22;1.23;;;;;;;23.11;28.93;96013.63;4950568;29;20193;-81
2022/10/30 10:46:11;;;;;;;2.80;1.17;;;;;;;23.13;29.08;96003.63;4948344;29;20194;-81
2022/10/30 10:48:46;;;;;;;2.85;1.15;;;;;;;23.27;28.27;96007.00;4955899;28;20177;-81
2022/10/30 10:51:18;;;;;;;3.08;1.33;;;;;;;23.27;26.51;96002.50;4960907;28;20212;-80
2022/10/30 10:53:46;;;;;;;2.35;1.20;;;;;;;23.35;25.67;95996.13;4940523;29;20196;-82
2022/10/30 10:56:11;;;;;;;4.05;1.45;;;;;;;23.50;25.74;95999.28;4936292;29;20182;-82
2022/10/30 10:58:53;;;;;;;1.50;1.00;;;;;;;23.49;25.57;96002.13;4943778;29;20187;-82
2022/10/30 11:01:28;;;;;;;3.88;1.15;;;;;;;23.56;25.36;96000.22;4950654;28;20220;-83
2022/10/30 11:04:04;;;;;;;4.38;1.52;;;;;;;23.69;26.29;96000.16;4951496;29;20182;-84
2022/10/30 11:06:35;;;;;;;3.05;1.20;;;;;;;23.68;25.83;95995.88;4946520;29;20610;-83
2022/10/30 11:09:20;;;;;;;6.82;1.20;;;;;;;23.73;24.92;95990.72;4933012;29;20201;-83
2022/10/30 11:11:47;;;;;;;1.77;1.20;;;;;;;23.65;24.69;95998.94;4940433;29;20237;-83
2022/10/30 11:14:18;;;;;;;3.10;1.15;;;;;;;23.72;25.57;95989.09;4936291;29;20189;-83
2022/10/30 11:17:07;;;;;;;3.15;1.55;;;;;;;23.77;26.27;95994.56;4938750;29;20208;-82
2022/10/30 11:19:32;;;;;;;1.58;1.02;;;;;;;23.75;25.81;95991.28;4961247;28;20212;-82
2022/10/30 11:21:58;;;;;;;2.00;1.00;;;;;;;23.76;25.96;95998.22;4928632;29;20269;-82
2022/10/30 11:24:31;;;;;;;2.53;1.17;;;;;;;23.76;26.61;95992.09;4952283;29;20185;-84
2022/10/30 11:26:59;;;;;;;4.45;1.58;;;;;;;23.73;26.08;95988.88;4948141;29;20260;-82
2022/10/30 11:29:27;;;;;;;2.67;1.10;;;;;;;23.70;25.66;95984.00;4952607;28;20599;-83
2022/10/30 11:32:01;;;;;;;2.75;1.40;;;;;;;23.66;27.83;95988.13;4950221;29;20188;-83
2022/10/30 11:34:37;;;;;;;5.93;1.30;;;;;;;23.62;27.88;95986.13;4956594;29;20596;-82
2022/10/30 11:37:03;;;;;;;2.33;1.02;;;;;;;23.59;28.89;95987.41;4941989;29;20185;-84
2022/10/30 11:39:33;;;;;;;2.25;1.40;;;;;;;23.83;30.14;95980.41;4961215;28;20281;-84
2022/10/30 11:42:13;;;;;;;3.40;1.30;;;;;;;23.86;30.65;95987.13;4949148;29;20269;-84
2022/10/30 11:44:48;;;;;;;2.60;1.50;;;;;;;23.79;30.43;95981.88;4953875;29;20192;-84
2022/10/30 11:47:14;;;;;;;3.75;1.30;;;;;;;23.67;31.29;95983.63;4944193;29;20219;-84
2022/10/30 11:49:44;;;;;;;6.00;1.50;;;;;;;23.73;30.60;95985.41;4944802;28;20232;-83
2022/10/30 11:52:12;;;;;;;2.50;1.20;;;;;;;23.67;30.96;95984.44;4948062;29;20185;-82
2022/10/30 11:54:40;;;;;;;3.72;1.30;;;;;;;23.77;31.82;95988.47;4928543;29;20272;-82
2022/10/30 11:57:18;;;;;;;5.43;1.40;;;;;;;23.71;31.58;95982.97;4923893;29;20186;-82
2022/10/30 11:59:45;;;;;;;4.68;2.03;;;;;;;23.76;31.05;95987.63;4944893;29;20209;-83
2022/10/30 12:02:31;;;;;;;2.65;1.42;;;;;;;23.72;31.84;95991.75;4953053;29;20205;-81
2022/10/30 12:05:01;;;;;;;4.22;1.42;;;;;;;23.72;30.86;95981.13;4947520;29;20205;-83
2022/10/30 12:07:30;;;;;;;4.20;1.27;;;;;;;23.71;31.23;95985.63;4945065;29;20193;-83
2022/10/30 12:10:00;;;;;;;2.10;1.27;;;;;;;23.71;31.08;95985.63;4940722;29;20639;-84
2022/10/30 12:12:35;;;;;;;1.65;1.10;;;;;;;23.76;31.55;95986.81;4931752;29;20177;-83
2022/10/30 12:15:19;;;;;;;2.15;1.23;;;;;;;23.86;32.13;95981.84;4946564;29;20189;-83
2022/10/30 12:17:58;;;;;;;1.38;1.25;;;;;;;23.74;33.48;95974.59;4928833;29;20725;-82
2022/10/30 12:20:23;;;;;;;2.53;1.63;;;;;;;23.84;33.80;95981.22;4945817;29;20665;-83
2022/10/30 12:22:49;;;;;;;3.13;1.27;;;;;;;23.94;34.39;95978.84;4932537;29;20249;-82
2022/10/30 12:25:22;;;;;;;4.00;2.10;;;;;;;23.89;34.05;95976.88;4950185;29;20235;-84
2022/10/30 12:27:48;;;;;;;2.35;1.63;;;;;;;23.79;33.31;95958.03;4945547;29;20189;-81
2022/10/30 12:30:19;;;;;;;2.33;1.35;;;;;;;23.80;33.58;95970.25;4937567;29;20275;-83
2022/10/30 12:33:10;;;;;;;5.10;1.50;;;;;;;23.76;33.23;95970.91;4953349;29;20607;-81
2022/10/30 12:35:40;;;;;;;5.13;1.65;;;;;;;23.72;34.03;95967.88;4950269;29;20688;-83
2022/10/30 12:38:10;;;;;;;2.38;1.45;;;;;;;23.65;34.93;95962.63;4946899;29;20840;-82
2022/10/30 12:40:39;;;;;;;5.20;1.80;;;;;;;23.64;35.01;95961.03;4940648;29;20214;-82
2022/10/30 12:43:23;;;;;;;4.50;1.65;;;;;;;23.66;35.09;95955.50;4945498;29;20181;-81
2022/10/30 12:45:50;;;;;;;4.93;1.50;;;;;;;23.54;35.01;95957.22;4952320;29;20345;-84
2022/10/30 12:48:39;;;;;;;1.83;1.20;;;;;;;23.63;34.31;95963.91;4957050;28;20207;-82
2022/10/30 12:51:34;;;;;;;6.68;1.65;;;;;;;23.54;35.22;95958.03;4942649;28;20265;-81
2022/10/30 12:54:03;;;;;;;2.78;1.20;;;;;;;23.53;34.07;95956.41;4943970;29;20190;-81
2022/10/30 12:56:37;;;;;;;2.25;1.27;;;;;;;23.60;32.23;95951.91;4963837;28;20636;-81
2022/10/30 12:59:15;;;;;;;3.38;1.50;;;;;;;23.70;33.09;95956.69;4954094;29;20192;-82
2022/10/30 13:01:47;;;;;;;4.20;1.20;;;;;;;23.69;33.56;95955.88;4966183;28;20204;-82
2022/10/30 13:04:19;;;;;;;2.67;1.33;;;;;;;23.69;33.61;95953.22;4953295;28;20201;-84
2022/10/30 13:06:52;;;;;;;3.08;1.50;;;;;;;23.57;33.74;95956.78;4948823;28;20225;-84
2022/10/30 13:09:26;;;;;;;1.77;1.40;;;;;;;23.63;33.03;95954.09;4943316;28;20277;-84
2022/10/30 13:12:06;;;;;;;3.70;1.52;;;;;;;23.59;32.44;95944.97;4921802;29;20216;-84
2022/10/30 13:14:37;;;;;;;3.95;1.42;;;;;;;23.67;32.09;95951.81;4934635;29;20200;-82
2022/10/30 13:17:03;;;;;;;2.53;1.40;;;;;;;23.79;32.68;95949.25;4949604;28;20229;-83
2022/10/30 13:19:28;;;;;;;2.42;1.40;;;;;;;23.67;31.97;95946.50;4945640;29;20225;-83
2022/10/30 13:22:32;;;;;;;4.43;1.52;;;;;;;23.68;32.01;95948.97;4942916;29;20205;-83
2022/10/30 13:25:04;;;;;;;4.22;1.38;;;;;;;23.65;32.81;95944.09;4939696;29;20696;-82
2022/10/30 13:27:40;;;;;;;2.53;1.60;;;;;;;23.66;32.43;95942.25;4954489;28;20200;-83
2022/10/30 13:30:08;;;;;;;3.67;1.52;;;;;;;23.74;32.27;95948.06;4943160;28;20209;-82
2022/10/30 13:32:47;;;;;;;3.60;1.50;;;;;;;23.62;32.75;95938.41;4959679;28;20193;-83
2022/10/30 13:35:26;;;;;;;3.42;1.60;;;;;;;23.66;33.72;95939.59;4947531;28;20288;-83
2022/10/30 13:38:34;;;;;;;2.05;1.40;;;;;;;23.66;33.29;95936.94;4941822;29;20252;-82
2022/10/30 13:41:05;;;;;;;2.85;1.73;;;;;;;23.58;33.62;95934.53;4930412;29;20225;-82
2022/10/30 13:43:46;;;;;;;7.72;1.75;;;;;;;23.59;33.99;95934.38;4938510;29;20569;-83
2022/10/30 13:46:42;;;;;;;3.33;1.42;;;;;;;23.46;34.52;95935.28;4951240;28;20252;-83
2022/10/30 13:49:13;;;;;;;3.50;1.70;;;;;;;23.27;35.61;95936.28;4947079;29;20205;-82
2022/10/30 13:52:05;;;;;;;3.60;1.60;;;;;;;23.44;35.19;95941.81;4958719;28;20213;-83
2022/10/30 13:54:41;;;;;;;5.03;1.90;;;;;;;23.44;35.84;95942.63;4935391;29;20346;-83
2022/10/30 13:57:27;;;;;;;2.28;1.52;;;;;;;23.31;36.36;95939.28;4952764;29;20195;-84
2022/10/30 14:00:00;;;;;;;3.28;1.52;;;;;;;23.26;36.71;95934.66;4954072;28;20299;-85
2022/10/30 14:03:05;;;;;;;2.95;1.25;;;;;;;23.17;36.50;95941.25;4947447;29;20216;-84
2022/10/30 14:05:41;;;;;;;1.98;1.50;;;;;;;23.10;36.33;95938.66;4944739;29;20619;-84
2022/10/30 14:08:16;;;;;;;2.85;1.10;;;;;;;23.07;35.92;95936.44;4950863;29;20204;-84
2022/10/30 14:10:49;;;;;;;4.80;1.77;;;;;;;23.04;36.15;95936.03;4955153;28;20216;-83
2022/10/30 14:13:21;;;;;;;4.72;1.60;;;;;;;23.11;36.22;95942.91;4954120;28;20194;-83
2022/10/30 14:15:46;;;;;;;3.72;1.70;;;;;;;22.98;37.06;95939.56;4951658;28;20284;-83
2022/10/30 14:18:11;;;;;;;3.30;1.50;;;;;;;22.95;37.14;95937.34;4930709;29;20575;-83
2022/10/30 14:20:47;;;;;;;5.93;1.65;;;;;;;22.88;36.96;95937.38;4945623;29;20225;-84
2022/10/30 14:23:23;;;;;;;2.50;1.33;;;;;;;22.86;36.71;95934.13;4940053;29;20594;-83
2022/10/30 14:26:11;;;;;;;2.63;1.55;;;;;;;22.79;37.16;95943.94;4955939;28;20281;-83
2022/10/30 14:28:38;;;;;;;4.43;1.50;;;;;;;22.86;36.84;95940.25;4939392;29;20713;-82
2022/10/30 14:31:05;;;;;;;3.58;1.42;;;;;;;22.82;36.89;95932.94;4942092;29;20235;-84
2022/10/30 14:33:36;;;;;;;2.67;1.33;;;;;;;22.74;37.12;95939.28;4946434;29;20185;-84
2022/10/30 14:36:15;;;;;;;3.22;1.60;;;;;;;22.73;37.44;95945.63;4949397;28;20177;-84
2022/10/30 14:38:40;;;;;;;3.17;1.38;;;;;;;22.62;38.55;95933.06;4942257;29;20272;-83
2022/10/30 14:41:25;;;;;;;2.97;1.25;;;;;;;22.59;38.99;95944.06;4936826;29;20238;-83
2022/10/30 14:44:26;;;;;;;3.10;1.50;;;;;;;22.42;39.91;95938.47;4949369;29;20567;-83
2022/10/30 14:46:54;;;;;;;2.40;1.58;;;;;;;22.34;40.34;95936.88;4948731;29;20217;-82
2022/10/30 14:49:43;;;;;;;4.22;2.05;;;;;;;22.19;40.45;95935.53;4948124;29;20220;-83
2022/10/30 14:52:17;;;;;;;2.33;1.52;;;;;;;22.24;40.12;95946.28;4956335;28;20248;-83
2022/10/30 14:55:22;;;;;;;4.60;1.80;;;;;;;22.19;40.48;95941.63;4967472;28;20180;-82
2022/10/30 14:57:51;;;;;;;4.28;1.85;;;;;;;22.04;40.26;95935.75;4968167;28;20201;-83
2022/10/30 15:00:22;;;;;;;3.10;1.70;;;;;;;21.93;40.29;95944.34;4950293;28;20410;-82
2022/10/30 15:03:17;;;;;;;3.20;1.70;;;;;;;21.81;40.69;95936.25;4947538;28;20224;-82
2022/10/30 15:05:49;;;;;;;2.70;1.20;;;;;;;21.87;40.48;95939.91;4942652;29;20209;-83
2022/10/30 15:08:26;;;;;;;3.53;1.70;;;;;;;21.80;39.85;95933.81;4935512;29;20195;-83
2022/10/30 15:11:16;;;;;;;2.28;1.35;;;;;;;21.82;39.46;95932.59;4953715;28;20694;-83
2022/10/30 15:13:47;;;;;;;4.07;1.50;;;;;;;21.76;39.00;95930.78;4952171;28;20188;-84
2022/10/30 15:16:16;;;;;;;2.78;1.33;;;;;;;21.78;39.11;95934.03;4944521;29;20186;-83
2022/10/30 15:18:46;;;;;;;4.13;1.50;;;;;;;21.69;39.59;95936.06;4952027;28;20189;-83
2022/10/30 15:21:19;;;;;;;2.88;1.50;;;;;;;21.62;40.03;95940.56;4946652;28;20599;-82
2022/10/30 15:23:44;;;;;;;4.15;1.60;;;;;;;21.52;40.22;95939.38;4954424;29;20185;-84
2022/10/30 15:26:18;;;;;;;2.15;1.52;;;;;;;21.48;40.25;95939.78;4953451;29;20637;-84
2022/10/30 15:28:48;;;;;;;4.38;1.70;;;;;;;21.31;40.87;95945.72;4962831;28;20548;-84
2022/10/30 15:31:17;;;;;;;3.60;1.63;;;;;;;21.15;41.33;95942.44;4946715;28;20206;-83
2022/10/30 15:33:43;;;;;;;4.47;2.17;;;;;;;21.04;43.20;95943.03;4947341;28;20245;-83
2022/10/30 15:36:19;;;;;;;8.63;2.53;;;;;;;20.97;50.61;95947.50;4948570;28;20189;-84
2022/10/30 15:39:02;;;;;;;4.88;2.20;;;;;;;20.75;55.32;95952.13;4951143;29;20199;-83
2022/10/30 15:41:28;;;;;;;5.38;2.72;;;;;;;20.59;56.24;95960.47;4937741;29;20584;-84
2022/10/30 15:43:54;;;;;;;7.60;2.58;;;;;;;20.38;58.04;95953.44;4924442;29;20189;-84
2022/10/30 15:46:20;;;;;;;6.75;3.50;;;;;;;20.26;57.98;95957.69;4951634;29;20205;-84
2022/10/30 15:48:46;;;;;;;6.80;3.08;;;;;;;20.07;58.64;95953.97;4927077;29;20189;-84
2022/10/30 15:51:14;;;;;;;7.32;3.75;;;;;;;19.97;59.90;95959.59;4943024;29;20212;-84
2022/10/30 15:53:44;;;;;;;6.47;3.25;;;;;;;19.83;60.89;95957.91;4938774;29;20276;-84
2022/10/30 15:56:23;;;;;;;8.10;3.38;;;;;;;19.63;61.84;95949.91;4933759;29;20191;-83
2022/10/30 15:58:55;;;;;;;6.82;3.42;;;;;;;19.45;62.08;95952.19;4931797;29;20723;-84
2022/10/30 16:01:31;;;;;;;5.75;3.17;;;;;;;19.31;62.16;95948.63;4941565;28;20217;-84
2022/10/30 16:03:57;;;;;;;8.70;4.45;;;;;;;19.09;62.97;95949.69;4942494;29;20172;-84
2022/10/30 16:06:25;;;;;;;4.78;3.53;;;;;;;18.92;63.21;95951.78;4921769;29;20203;-84
2022/10/30 16:08:51;;;;;;;7.03;4.10;;;;;;;18.75;63.66;95953.88;4935705;28;20277;-83
2022/10/30 16:11:17;;;;;;;7.05;4.50;;;;;;;18.59;64.66;95954.06;4934713;29;20289;-82
2022/10/30 16:13:42;;;;;;;9.20;4.07;;;;;;;18.45;65.11;95952.31;4937747;29;20571;-83
2022/10/30 16:16:14;;;;;;;18.25;12.35;;;;;;;18.32;65.70;95956.44;4939637;28;20209;-83
2022/10/30 16:18:40;;;;;;;18.67;13.27;;;;;;;18.21;66.08;95962.16;4928588;29;20197;-83
2022/10/30 16:21:07;;;;;;;13.73;8.60;;;;;;;18.10;66.54;95955.56;4941052;28;20224;-83
2022/10/30 16:23:37;;;;;;;9.18;5.60;;;;;;;18.03;67.24;95959.94;4946491;29;20185;-82
2022/10/30 16:26:03;;;;;;;8.30;3.88;;;;;;;17.82;69.21;95950.16;4932887;29;20201;-83
2022/10/30 16:28:31;;;;;;;6.38;3.75;;;;;;;17.80;68.76;95954.78;4944799;29;20319;-83
2022/10/30 16:31:01;;;;;;;10.32;3.90;;;;;;;17.68;68.48;95953.59;4945244;28;20205;-83
2022/10/30 16:33:28;;;;;;;7.05;3.92;;;;;;;17.61;68.96;95954.50;4950095;28;20189;-83
2022/10/30 16:35:53;;;;;;;4.88;3.65;;;;;;;17.51;69.54;95960.84;4950916;29;20208;-83
2022/10/30 16:38:19;;;;;;;4.88;3.53;;;;;;;17.44;70.11;95959.09;4932438;29;20216;-83
2022/10/30 16:40:44;;;;;;;5.78;4.00;;;;;;;17.37;70.18;95958.19;4944715;28;20224;-83
2022/10/30 16:43:30;;;;;;;5.05;3.63;;;;;;;17.26;70.85;95960.25;4946794;29;20189;-83
2022/10/30 16:46:03;;;;;;;4.93;4.07;;;;;;;17.20;71.17;95968.84;4950420;29;20575;-83
2022/10/30 16:48:28;;;;;;;5.32;3.72;;;;;;;17.13;71.85;95970.53;4963008;28;20194;-83
2022/10/30 16:50:59;;;;;;;5.38;3.75;;;;;;;17.06;72.12;95967.03;4947094;29;20292;-83
2022/10/30 16:53:24;;;;;;;5.47;3.55;;;;;;;17.04;72.77;95971.59;4955816;28;20189;-83
2022/10/30 16:55:50;;;;;;;7.82;3.50;;;;;;;17.01;73.38;95973.78;4954957;28;20181;-83
2022/10/30 16:58:16;;;;;;;7.15;3.30;;;;;;;16.98;73.56;95974.97;4949866;29;20254;-82
2022/10/30 17:00:51;;;;;;;6.50;3.30;;;;;;;16.95;73.68;95970.84;4955164;28;20216;-83
2022/10/30 17:03:18;;;;;;;5.45;3.85;;;;;;;16.96;73.78;95974.28;4952004;29;20197;-83
2022/10/30 17:05:55;;;;;;;8.02;3.80;;;;;;;16.85;74.34;95969.47;4962098;29;20283;-83
2022/10/30 17:08:33;;;;;;;6.00;3.35;;;;;;;16.75;74.44;95977.59;4955454;29;20271;-82
2022/10/30 17:11:00;;;;;;;6.28;3.80;;;;;;;16.64;74.73;95976.16;4975900;28;20201;-83
2022/10/30 17:13:41;;;;;;;7.65;3.60;;;;;;;16.60;74.76;95987.97;4970231;28;20198;-84
2022/10/30 17:16:31;;;;;;;4.95;3.42;;;;;;;16.58;75.01;95981.28;4977687;28;20173;-82
2022/10/30 17:19:01;;;;;;;7.53;3.30;;;;;;;16.56;75.31;95991.13;4949266;29;20205;-82
2022/10/30 17:21:38;;;;;;;5.53;3.70;;;;;;;16.55;75.43;95992.94;4941569;29;20210;-82
2022/10/30 17:24:04;;;;;;;5.45;3.83;;;;;;;16.52;75.63;95995.91;4949278;29;20189;-82
2022/10/30 17:26:34;;;;;;;7.60;4.07;;;;;;;16.47;76.07;95995.59;4952721;29;20190;-82
2022/10/30 17:29:00;;;;;;;10.02;4.22;;;;;;;16.39;76.29;95990.41;4954507;28;20189;-83
2022/10/30 17:31:35;;;;;;;6.00;3.95;;;;;;;16.34;76.43;96000.56;4932384;29;20578;-82
2022/10/30 17:34:04;;;;;;;6.05;3.75;;;;;;;16.31;76.03;95995.69;4966509;28;20548;-83
2022/10/30 17:36:29;;;;;;;9.23;4.15;;;;;;;16.25;76.10;95999.81;4937476;29;20208;-83
2022/10/30 17:38:54;;;;;;;8.18;3.78;;;;;;;16.19;75.67;95999.69;4928916;29;20205;-83
2022/10/30 17:41:19;;;;;;;6.28;3.53;;;;;;;16.10;75.68;96007.59;4945002;29;20272;-83
2022/10/30 17:43:50;;;;;;;5.35;3.58;;;;;;;16.03;75.45;96008.44;4944802;29;20630;-83
2022/10/30 17:46:16;;;;;;;5.90;3.63;;;;;;;15.99;74.77;96004.50;4948480;28;20264;-83
2022/10/30 17:48:42;;;;;;;5.05;2.85;;;;;;;15.98;73.35;96005.50;4949638;29;20216;-85
2022/10/30 17:51:14;;;;;;;2.63;2.42;;;;;;;15.96;71.70;96012.72;4955179;28;20209;-83
2022/10/30 17:53:39;;;;;;;3.78;2.53;;;;;;;15.90;71.00;96010.75;4938445;28;20235;-83
2022/10/30 17:56:05;;;;;;;3.97;2.60;;;;;;;15.89;70.12;96015.19;4948950;29;20334;-85
2022/10/30 17:58:30;;;;;;;4.18;2.45;;;;;;;15.85;69.88;96016.53;4952129;29;20190;-83
2022/10/30 18:00:57;;;;;;;5.50;2.30;;;;;;;15.82;69.39;96016.88;4945938;29;20209;-84
2022/10/30 18:03:22;;;;;;;6.88;2.20;;;;;;;15.79;69.04;96014.56;4947501;29;20186;-84
2022/10/30 18:05:47;;;;;;;3.83;2.08;;;;;;;15.75;68.16;96014.09;4952857;29;20201;-84
2022/10/30 18:08:13;;;;;;;6.07;2.92;;;;;;;15.77;66.77;96022.59;4938285;29;20198;-84
2022/10/30 18:10:38;;;;;;;4.55;2.40;;;;;;;15.79;65.79;96019.81;4931816;29;20601;-83
2022/10/30 18:13:03;;;;;;;3.25;2.35;;;;;;;15.74;65.94;96015.09;4947141;28;20201;-82
2022/10/30 18:15:40;;;;;;;4.68;2.17;;;;;;;15.74;65.13;96019.50;4954202;29;20258;-82
2022/10/30 18:18:05;;;;;;;2.83;2.10;;;;;;;15.69;64.71;96022.63;4946060;29;20190;-82
2022/10/30 18:20:32;;;;;;;5.03;1.92;;;;;;;15.55;64.71;96021.47;4953174;28;20252;-83
2022/10/30 18:22:58;;;;;;;6.50;2.33;;;;;;;15.43;64.84;96020.19;4944295;29;20214;-83
2022/10/30 18:25:41;;;;;;;4.90;2.00;;;;;;;15.36;65.28;96026.22;4937307;29;20660;-83
2022/10/30 18:28:06;;;;;;;4.05;2.00;;;;;;;15.30;65.19;96032.97;4954198;29;20182;-84
2022/10/30 18:30:32;;;;;;;3.20;2.00;;;;;;;15.27;65.13;96028.03;4953994;28;20633;-85
2022/10/30 18:32:57;;;;;;;5.00;2.97;;;;;;;15.24;64.94;96033.63;4947932;29;20193;-84
2022/10/30 18:35:32;;;;;;;5.25;2.30;;;;;;;15.21;64.56;96032.16;4952286;29;20189;-85
2022/10/30 18:37:58;;;;;;;3.45;2.10;;;;;;;15.22;64.25;96033.78;4943463;29;20177;-83
2022/10/30 18:40:23;;;;;;;5.88;2.50;;;;;;;15.22;64.07;96036.41;4944435;29;20212;-82
2022/10/30 18:42:49;;;;;;;7.85;2.58;;;;;;;15.35;63.00;96037.69;4936920;29;20296;-82
2022/10/30 18:45:24;;;;;;;5.13;3.47;;;;;;;15.44;62.60;96045.38;4930934;29;20564;-83
2022/10/30 18:47:51;;;;;;;5.97;2.78;;;;;;;15.58;62.09;96039.47;4966162;28;20193;-84
2022/10/30 18:50:17;;;;;;;6.78;3.03;;;;;;;15.80;61.24;96045.00;4954821;28;20916;-84
2022/10/30 18:52:42;;;;;;;4.47;2.30;;;;;;;15.80;61.35;96034.53;4955291;29;20249;-83
2022/10/30 18:55:17;;;;;;;6.55;2.30;;;;;;;15.92;59.88;96040.25;4952151;29;20256;-84
2022/10/30 18:57:43;;;;;;;6.95;2.20;;;;;;;15.86;59.79;96041.72;4954014;29;20182;-85